Time;durP1;ratioP1;P1;durP2;ratioP2;P2;SDS_P1;SDS_P2;PMS_P1;PMS_P2;Temp;Humidity;BMP_temperature;BMP_pressure;BME280_temperature;BME280_humidity;BME280_pressure;Samples;Min_cycle;Max_cycle;Signal;HPM_P1;HPM_P2
2021/12/15 00:00:01;;;;;;;50.27;24.10;;;;;;;;;;5037022;28;20493;-51
2021/12/15 00:02:28;;;;;;;45.60;22.67;;;;;;;;;;5038355;28;20921;-51
2021/12/15 00:04:56;;;;;;;50.00;23.47;;;;;;;;;;5038005;28;20485;-53
2021/12/15 00:07:23;;;;;;;41.20;22.20;;;;;;;;;;5038856;28;20409;-52
2021/12/15 00:09:49;;;;;;;47.20;22.53;;;;;;;;;;5039193;28;20480;-52
2021/12/15 00:12:15;;;;;;;47.90;23.90;;;;;;;;;;5039414;28;20410;-51
2021/12/15 00:14:42;;;;;;;44.10;22.73;;;;;;;;;;5038087;28;20905;-51
2021/12/15 00:17:08;;;;;;;51.57;23.40;;;;;;;;;;5038724;28;20808;-51
2021/12/15 00:19:34;;;;;;;36.43;21.30;;;;;;;;;;5038497;28;20504;-52
2021/12/15 00:22:00;;;;;;;45.07;22.63;;;;;;;;;;5038575;28;20487;-50
2021/12/15 00:24:26;;;;;;;45.43;21.40;;;;;;;;;;5038465;28;20420;-47
2021/12/15 00:26:54;;;;;;;42.13;21.63;;;;;;;;;;5038712;28;20947;-51
2021/12/15 00:29:20;;;;;;;40.13;21.23;;;;;;;;;;5038854;28;20796;-51
2021/12/15 00:31:46;;;;;;;41.53;20.60;;;;;;;;;;5038178;28;20433;-50
2021/12/15 00:34:13;;;;;;;42.37;18.27;;;;;;;;;;5038614;28;20440;-52
2021/12/15 00:36:43;;;;;;;27.83;17.20;;;;;;;;;;5037578;28;20414;-51
2021/12/15 00:39:10;;;;;;;36.27;18.13;;;;;;;;;;5038647;28;20764;-51
2021/12/15 00:41:36;;;;;;;34.17;18.40;;;;;;;;;;5038951;28;20433;-51
2021/12/15 00:44:02;;;;;;;32.10;16.40;;;;;;;;;;5038148;28;20456;-53
2021/12/15 00:46:28;;;;;;;29.70;16.20;;;;;;;;;;5037792;28;20910;-51
2021/12/15 00:48:54;;;;;;;27.20;16.27;;;;;;;;;;5038370;28;20547;-51
2021/12/15 00:51:21;;;;;;;27.90;15.97;;;;;;;;;;5038482;28;20407;-51
2021/12/15 00:53:47;;;;;;;33.53;15.80;;;;;;;;;;5038246;28;20403;-51
2021/12/15 00:56:12;;;;;;;33.50;14.80;;;;;;;;;;5037701;28;20505;-51
2021/12/15 00:58:38;;;;;;;27.87;14.77;;;;;;;;;;5038406;28;20406;-51
2021/12/15 01:01:05;;;;;;;30.60;15.50;;;;;;;;;;5037957;28;20414;-51
2021/12/15 01:03:31;;;;;;;27.70;15.13;;;;;;;;;;5037821;28;20453;-51
2021/12/15 01:06:03;;;;;;;27.67;15.47;;;;;;;;;;5036884;28;20429;-51
2021/12/15 01:08:30;;;;;;;29.53;14.23;;;;;;;;;;5037429;28;20409;-51
2021/12/15 01:21:51;;;;;;;27.10;13.27;;;;;;;;;;5037208;28;20419;-51
2021/12/15 01:24:18;;;;;;;26.93;13.57;;;;;;;;;;5037541;28;20920;-51
2021/12/15 01:26:44;;;;;;;27.40;14.40;;;;;;;;;;5036781;28;20418;-51
2021/12/15 01:29:10;;;;;;;27.47;15.20;;;;;;;;;;5037327;28;20426;-51
2021/12/15 01:31:36;;;;;;;24.23;14.60;;;;;;;;;;5036262;28;20408;-51
2021/12/15 01:34:02;;;;;;;24.00;13.30;;;;;;;;;;5036737;28;20406;-52
2021/12/15 01:36:28;;;;;;;24.83;14.77;;;;;;;;;;5035625;28;20425;-52
2021/12/15 01:38:54;;;;;;;22.93;14.00;;;;;;;;;;5037128;28;20528;-51
2021/12/15 01:41:23;;;;;;;22.37;14.00;;;;;;;;;;5036422;28;20832;-53
2021/12/15 01:46:58;;;;;;;25.20;14.53;;;;;;;;;;5036355;28;20429;-51
2021/12/15 01:49:27;;;;;;;26.63;13.20;;;;;;;;;;5037235;28;20742;-52
2021/12/15 01:51:54;;;;;;;21.60;13.90;;;;;;;;;;5037589;28;20404;-53
2021/12/15 01:54:21;;;;;;;21.70;13.60;;;;;;;;;;5037110;28;20416;-50
2021/12/15 01:56:47;;;;;;;24.03;14.07;;;;;;;;;;5037054;28;20517;-52
2021/12/15 01:59:14;;;;;;;18.40;13.47;;;;;;;;;;5037665;28;20433;-52
2021/12/15 02:01:40;;;;;;;22.53;13.07;;;;;;;;;;5036527;28;20405;-50
2021/12/15 02:04:07;;;;;;;19.67;12.20;;;;;;;;;;5036313;28;20445;-51
2021/12/15 02:06:33;;;;;;;20.93;12.17;;;;;;;;;;5035361;28;20430;-51
2021/12/15 02:08:59;;;;;;;17.00;10.90;;;;;;;;;;5036554;28;20451;-51
2021/12/15 02:11:25;;;;;;;21.13;12.77;;;;;;;;;;5036940;28;20410;-49
2021/12/15 02:13:52;;;;;;;23.70;13.43;;;;;;;;;;5036839;28;20409;-52
2021/12/15 02:16:18;;;;;;;23.63;12.10;;;;;;;;;;5035628;28;20437;-51
2021/12/15 02:18:45;;;;;;;20.80;12.83;;;;;;;;;;5036225;28;20406;-51
2021/12/15 02:21:12;;;;;;;22.03;12.90;;;;;;;;;;5036262;28;20438;-53
2021/12/15 02:23:43;;;;;;;21.20;12.20;;;;;;;;;;5036325;28;20446;-52
2021/12/15 02:26:14;;;;;;;19.60;12.93;;;;;;;;;;5035857;28;20437;-52
2021/12/15 02:28:41;;;;;;;18.73;12.47;;;;;;;;;;5036059;28;20449;-52
2021/12/15 02:34:01;;;;;;;20.83;12.17;;;;;;;;;;5036592;28;20406;-51
2021/12/15 02:39:14;;;;;;;24.37;13.83;;;;;;;;;;5036662;28;20414;-53
2021/12/15 02:41:40;;;;;;;25.80;13.67;;;;;;;;;;5035582;28;20950;-52
2021/12/15 02:44:08;;;;;;;23.20;13.33;;;;;;;;;;5035832;28;20500;-53
2021/12/15 02:46:36;;;;;;;26.37;13.40;;;;;;;;;;5034641;28;20425;-52
2021/12/15 02:49:03;;;;;;;21.40;13.23;;;;;;;;;;5036241;28;20402;-52
2021/12/15 02:51:29;;;;;;;23.47;14.90;;;;;;;;;;5036138;28;20408;-51
2021/12/15 02:54:00;;;;;;;22.30;13.57;;;;;;;;;;5036322;28;20417;-51
2021/12/15 02:56:27;;;;;;;27.77;13.47;;;;;;;;;;5035428;28;20430;-52
2021/12/15 02:58:59;;;;;;;21.70;13.67;;;;;;;;;;5034186;28;20428;-53
2021/12/15 03:01:36;;;;;;;22.40;13.83;;;;;;;;;;5036252;28;20440;-53
2021/12/15 03:04:17;;;;;;;25.73;14.60;;;;;;;;;;5036183;28;20455;-51
2021/12/15 03:06:54;;;;;;;24.63;13.67;;;;;;;;;;5035601;28;20429;-51
2021/12/15 03:17:35;;;;;;;22.90;14.37;;;;;;;;;;5036248;28;20428;-52
2021/12/15 03:20:01;;;;;;;23.70;14.47;;;;;;;;;;5036369;28;20785;-51
2021/12/15 03:22:28;;;;;;;25.10;13.53;;;;;;;;;;5035827;28;20467;-50
2021/12/15 03:24:54;;;;;;;26.00;14.90;;;;;;;;;;5035849;28;20405;-50
2021/12/15 03:27:26;;;;;;;28.93;14.70;;;;;;;;;;5035820;28;20821;-50
2021/12/15 03:35:34;;;;;;;25.93;14.57;;;;;;;;;;5038313;28;20505;-51
2021/12/15 03:38:01;;;;;;;28.53;15.60;;;;;;;;;;5039580;28;20484;-51
2021/12/15 03:40:37;;;;;;;27.87;16.47;;;;;;;;;;5039748;28;20466;-50
2021/12/15 03:43:05;;;;;;;32.27;17.30;;;;;;;;;;5040409;28;20451;-50
2021/12/15 03:45:41;;;;;;;23.87;15.17;;;;;;;;;;5039654;28;20438;-50
2021/12/15 03:48:10;;;;;;;33.37;15.13;;;;;;;;;;5040283;28;20493;-50
2021/12/15 03:50:36;;;;;;;26.80;15.30;;;;;;;;;;5040118;28;20413;-51
2021/12/15 03:53:02;;;;;;;30.83;16.57;;;;;;;;;;5039502;28;20424;-50
2021/12/15 03:55:30;;;;;;;27.20;15.40;;;;;;;;;;5038626;28;20923;-51
2021/12/15 03:57:56;;;;;;;28.77;15.20;;;;;;;;;;5039449;28;20428;-49
2021/12/15 04:00:22;;;;;;;31.53;15.73;;;;;;;;;;5038334;28;20857;-52
2021/12/15 04:02:48;;;;;;;27.80;15.20;;;;;;;;;;5038682;28;20449;-51
2021/12/15 04:05:17;;;;;;;28.13;14.67;;;;;;;;;;5039075;28;20492;-52
2021/12/15 04:07:43;;;;;;;28.73;15.20;;;;;;;;;;5039395;28;20410;-51
2021/12/15 04:10:12;;;;;;;30.93;15.80;;;;;;;;;;5039991;28;20397;-50
2021/12/15 04:12:38;;;;;;;26.87;15.93;;;;;;;;;;5040508;28;20409;-50
2021/12/15 04:18:04;;;;;;;23.90;14.13;;;;;;;;;;4994095;28;20412;-50
2021/12/15 04:20:32;;;;;;;28.07;14.63;;;;;;;;;;5039191;28;20405;-51
2021/12/15 04:22:58;;;;;;;23.50;14.03;;;;;;;;;;5038658;28;20442;-51
2021/12/15 04:25:25;;;;;;;24.77;15.47;;;;;;;;;;5038362;28;20426;-51
2021/12/15 04:27:57;;;;;;;27.40;14.57;;;;;;;;;;5038231;28;20667;-49
2021/12/15 04:30:24;;;;;;;27.80;15.40;;;;;;;;;;5039032;28;20844;-51
2021/12/15 04:32:51;;;;;;;26.40;14.80;;;;;;;;;;5039033;28;20888;-51
2021/12/15 04:35:17;;;;;;;27.27;15.00;;;;;;;;;;5038185;28;20425;-51
2021/12/15 04:37:44;;;;;;;23.90;14.27;;;;;;;;;;5038913;28;20462;-51
2021/12/15 04:40:11;;;;;;;29.20;14.43;;;;;;;;;;5038832;28;20410;-52
2021/12/15 04:42:38;;;;;;;29.03;14.27;;;;;;;;;;5037762;28;20450;-52
2021/12/15 04:45:06;;;;;;;29.23;14.53;;;;;;;;;;5036808;28;20505;-50
2021/12/15 04:47:32;;;;;;;32.30;14.17;;;;;;;;;;5037433;28;20397;-51
2021/12/15 04:49:58;;;;;;;25.60;14.83;;;;;;;;;;5037526;28;20477;-51
2021/12/15 04:52:28;;;;;;;22.40;13.70;;;;;;;;;;5037941;28;20405;-52
2021/12/15 04:54:54;;;;;;;28.40;14.03;;;;;;;;;;5036707;28;20463;-50
2021/12/15 04:57:21;;;;;;;25.53;14.80;;;;;;;;;;5038270;28;20434;-52
2021/12/15 04:59:47;;;;;;;26.00;14.53;;;;;;;;;;5038703;28;20410;-52
2021/12/15 05:02:14;;;;;;;24.97;13.77;;;;;;;;;;5037572;28;20525;-52
2021/12/15 05:04:40;;;;;;;28.87;15.13;;;;;;;;;;5036780;28;20457;-50
2021/12/15 05:07:06;;;;;;;26.23;15.00;;;;;;;;;;5037811;28;20423;-50
2021/12/15 05:09:32;;;;;;;31.73;15.63;;;;;;;;;;5037684;28;20448;-50
2021/12/15 05:11:58;;;;;;;25.50;13.90;;;;;;;;;;5037590;28;20406;-51
2021/12/15 05:14:25;;;;;;;24.07;13.33;;;;;;;;;;5037186;28;20492;-50
2021/12/15 05:16:52;;;;;;;25.43;13.47;;;;;;;;;;5036309;28;20422;-53
2021/12/15 05:19:18;;;;;;;25.17;14.90;;;;;;;;;;5036467;28;20402;-52
2021/12/15 05:21:44;;;;;;;28.47;14.40;;;;;;;;;;5036455;28;20405;-52
2021/12/15 05:24:30;;;;;;;22.73;14.17;;;;;;;;;;5035698;28;20832;-52
2021/12/15 05:26:57;;;;;;;20.83;13.67;;;;;;;;;;5037098;28;20421;-52
2021/12/15 05:29:23;;;;;;;24.50;13.70;;;;;;;;;;5036658;28;20426;-50
2021/12/15 05:31:49;;;;;;;22.87;13.23;;;;;;;;;;5036105;28;20413;-53
2021/12/15 05:34:15;;;;;;;18.10;12.10;;;;;;;;;;5035919;28;20783;-51
2021/12/15 05:36:42;;;;;;;17.30;11.97;;;;;;;;;;5035521;28;20426;-52
2021/12/15 05:39:08;;;;;;;19.33;11.77;;;;;;;;;;5035919;28;20430;-52
2021/12/15 05:41:35;;;;;;;19.53;12.20;;;;;;;;;;5036310;28;20434;-51
2021/12/15 05:44:01;;;;;;;22.73;14.63;;;;;;;;;;5036095;28;20832;-51
2021/12/15 05:46:27;;;;;;;19.93;12.90;;;;;;;;;;5034716;28;20434;-51
2021/12/15 05:48:53;;;;;;;21.93;13.80;;;;;;;;;;5035970;28;20421;-51
2021/12/15 05:51:19;;;;;;;17.63;12.37;;;;;;;;;;5035874;28;20412;-52
2021/12/15 05:53:46;;;;;;;18.70;12.20;;;;;;;;;;5035277;28;20896;-51
2021/12/15 05:56:12;;;;;;;22.60;12.93;;;;;;;;;;5034083;28;20488;-53
2021/12/15 05:58:39;;;;;;;22.23;13.30;;;;;;;;;;5034634;28;20413;-51
2021/12/15 06:01:05;;;;;;;23.53;14.17;;;;;;;;;;5034622;28;20767;-51
2021/12/15 06:03:31;;;;;;;19.30;13.03;;;;;;;;;;5034563;28;20481;-52
2021/12/15 06:05:57;;;;;;;24.33;13.60;;;;;;;;;;5033596;28;20841;-53
2021/12/15 06:08:25;;;;;;;25.67;15.00;;;;;;;;;;5034543;28;20452;-53
2021/12/15 06:10:51;;;;;;;25.13;13.90;;;;;;;;;;5035048;28;20402;-52
2021/12/15 06:13:18;;;;;;;22.27;13.17;;;;;;;;;;5035769;28;20411;-52
2021/12/15 06:15:45;;;;;;;22.23;14.10;;;;;;;;;;5034964;28;20437;-50
2021/12/15 06:18:14;;;;;;;26.60;14.30;;;;;;;;;;5035921;28;20416;-51
2021/12/15 06:20:41;;;;;;;26.00;14.77;;;;;;;;;;5036532;28;20399;-51
2021/12/15 06:23:12;;;;;;;26.03;14.27;;;;;;;;;;5036341;28;20453;-51
2021/12/15 06:25:39;;;;;;;23.10;14.27;;;;;;;;;;5036089;28;20524;-52
2021/12/15 06:28:05;;;;;;;28.57;14.60;;;;;;;;;;5036542;28;20453;-50
2021/12/15 06:30:33;;;;;;;26.80;14.73;;;;;;;;;;5035954;28;20475;-50
2021/12/15 06:32:59;;;;;;;23.67;13.57;;;;;;;;;;5035952;28;20405;-51
2021/12/15 06:35:25;;;;;;;23.67;13.33;;;;;;;;;;5035293;28;20432;-51
2021/12/15 06:37:51;;;;;;;28.50;15.23;;;;;;;;;;5036052;28;20415;-51
2021/12/15 06:40:17;;;;;;;26.90;14.20;;;;;;;;;;5036102;28;20437;-52
2021/12/15 06:42:43;;;;;;;28.63;15.17;;;;;;;;;;5035372;28;20457;-52
2021/12/15 06:45:13;;;;;;;21.67;13.20;;;;;;;;;;5035801;28;20872;-52
2021/12/15 06:58:39;;;;;;;26.67;13.00;;;;;;;;;;5034481;28;20833;-51
2021/12/15 07:01:06;;;;;;;25.90;13.80;;;;;;;;;;5035285;28;20416;-50
2021/12/15 07:03:32;;;;;;;24.07;13.73;;;;;;;;;;5034132;28;20479;-51
2021/12/15 07:05:58;;;;;;;32.63;13.40;;;;;;;;;;5033484;28;20433;-50
2021/12/15 07:08:27;;;;;;;23.00;13.10;;;;;;;;;;5033666;28;20398;-50
2021/12/15 07:10:53;;;;;;;23.40;13.20;;;;;;;;;;5033752;28;20451;-49
2021/12/15 07:13:20;;;;;;;23.67;12.40;;;;;;;;;;5033350;28;20400;-53
2021/12/15 07:15:47;;;;;;;28.60;14.40;;;;;;;;;;5033078;28;20797;-53
2021/12/15 07:18:15;;;;;;;24.07;14.10;;;;;;;;;;5033912;28;20410;-50
2021/12/15 07:23:12;;;;;;;25.33;13.17;;;;;;;;;;5034259;28;20483;-52
2021/12/15 07:25:39;;;;;;;21.70;13.00;;;;;;;;;;5033702;28;20430;-52
2021/12/15 07:28:05;;;;;;;23.77;13.07;;;;;;;;;;5034024;28;20789;-50
2021/12/15 07:30:31;;;;;;;23.90;12.27;;;;;;;;;;5034363;28;20434;-51
2021/12/15 07:32:58;;;;;;;23.17;13.43;;;;;;;;;;5034272;28;20409;-51
2021/12/15 07:35:24;;;;;;;23.70;13.83;;;;;;;;;;5033315;28;20475;-52
2021/12/15 07:37:50;;;;;;;21.47;11.23;;;;;;;;;;5034562;28;20401;-52
2021/12/15 07:40:21;;;;;;;22.43;12.40;;;;;;;;;;5034887;28;20400;-50
2021/12/15 07:43:07;;;;;;;20.80;12.07;;;;;;;;;;5034509;28;20453;-52
2021/12/15 07:45:37;;;;;;;22.90;12.77;;;;;;;;;;5034021;28;20504;-50
2021/12/15 07:48:04;;;;;;;26.57;12.43;;;;;;;;;;5034605;28;20390;-53
2021/12/15 07:50:31;;;;;;;22.47;13.00;;;;;;;;;;5033396;28;20415;-50
2021/12/15 07:52:57;;;;;;;24.77;12.40;;;;;;;;;;5034090;28;20416;-52
2021/12/15 07:55:25;;;;;;;23.50;12.20;;;;;;;;;;5022873;28;20444;-51
2021/12/15 07:57:52;;;;;;;22.23;13.20;;;;;;;;;;5030289;28;20929;-53
2021/12/15 08:00:18;;;;;;;28.97;12.80;;;;;;;;;;5032320;28;20832;-51
2021/12/15 08:02:44;;;;;;;25.13;12.97;;;;;;;;;;5023713;28;20543;-50
2021/12/15 08:05:10;;;;;;;24.60;12.77;;;;;;;;;;5015338;28;20486;-51
2021/12/15 08:07:36;;;;;;;26.43;11.70;;;;;;;;;;5011452;28;20502;-53
2021/12/15 08:10:06;;;;;;;20.07;11.80;;;;;;;;;;5012797;28;20468;-52
2021/12/15 08:12:32;;;;;;;23.03;11.80;;;;;;;;;;5012927;28;20493;-51
2021/12/15 08:14:58;;;;;;;20.60;11.77;;;;;;;;;;5011628;28;20851;-52
2021/12/15 08:17:24;;;;;;;22.43;12.43;;;;;;;;;;5012763;28;20406;-52
2021/12/15 08:19:50;;;;;;;23.20;11.67;;;;;;;;;;5012933;28;20403;-50
2021/12/15 08:22:16;;;;;;;24.07;11.90;;;;;;;;;;5016331;28;20406;-51
2021/12/15 08:24:42;;;;;;;22.37;12.60;;;;;;;;;;5015378;28;20403;-50
2021/12/15 08:27:09;;;;;;;24.93;11.03;;;;;;;;;;5015647;28;20904;-52
2021/12/15 08:29:35;;;;;;;20.40;11.03;;;;;;;;;;5015709;28;20426;-51
2021/12/15 08:32:01;;;;;;;24.63;12.50;;;;;;;;;;5015696;28;20418;-52
2021/12/15 08:34:27;;;;;;;25.33;12.67;;;;;;;;;;5015363;28;20487;-50
2021/12/15 08:36:54;;;;;;;20.80;10.30;;;;;;;;;;5015598;28;20452;-52
2021/12/15 08:39:20;;;;;;;19.70;10.83;;;;;;;;;;5015533;28;20406;-52
2021/12/15 08:41:46;;;;;;;17.93;11.17;;;;;;;;;;5015197;28;20535;-52
2021/12/15 08:44:13;;;;;;;20.67;11.57;;;;;;;;;;5014860;28;20482;-52
2021/12/15 08:46:40;;;;;;;18.70;11.10;;;;;;;;;;5014727;28;20834;-53
2021/12/15 08:49:09;;;;;;;20.47;12.10;;;;;;;;;;5015141;28;20403;-50
2021/12/15 08:51:36;;;;;;;23.33;12.83;;;;;;;;;;5015165;28;20431;-52
2021/12/15 08:54:04;;;;;;;25.00;13.17;;;;;;;;;;5013673;28;20414;-53
2021/12/15 08:56:30;;;;;;;19.97;11.67;;;;;;;;;;5014110;28;20442;-52
2021/12/15 08:58:56;;;;;;;24.93;14.57;;;;;;;;;;5014914;28;20406;-53
2021/12/15 09:01:22;;;;;;;26.60;13.30;;;;;;;;;;5014816;28;20902;-52
2021/12/15 09:03:48;;;;;;;27.00;12.63;;;;;;;;;;5014487;28;20516;-53
2021/12/15 09:06:15;;;;;;;30.00;12.33;;;;;;;;;;5014033;28;20419;-52
2021/12/15 09:08:42;;;;;;;24.53;13.50;;;;;;;;;;5014891;28;20478;-52
2021/12/15 09:11:11;;;;;;;21.83;12.00;;;;;;;;;;5014748;28;20395;-51
2021/12/15 09:13:38;;;;;;;23.67;13.60;;;;;;;;;;5014810;28;20437;-51
2021/12/15 09:16:06;;;;;;;25.57;13.20;;;;;;;;;;5014305;28;20426;-50
2021/12/15 09:18:32;;;;;;;24.97;13.67;;;;;;;;;;5015040;28;20416;-52
2021/12/15 09:20:59;;;;;;;27.17;14.17;;;;;;;;;;5015357;28;20484;-51
2021/12/15 09:23:25;;;;;;;23.97;15.33;;;;;;;;;;5015921;28;20446;-50
2021/12/15 09:25:51;;;;;;;26.87;16.30;;;;;;;;;;5014317;28;20419;-51
2021/12/15 09:28:19;;;;;;;28.07;15.10;;;;;;;;;;5014643;28;20429;-50
2021/12/15 09:30:46;;;;;;;28.50;15.50;;;;;;;;;;5018153;28;20458;-50
2021/12/15 09:33:18;;;;;;;27.87;16.67;;;;;;;;;;5014993;28;20440;-50
2021/12/15 09:35:44;;;;;;;28.23;16.10;;;;;;;;;;5013345;28;20445;-50
2021/12/15 09:38:10;;;;;;;26.73;16.20;;;;;;;;;;5020786;28;20419;-50
2021/12/15 09:40:36;;;;;;;32.50;17.63;;;;;;;;;;5017203;28;20461;-50
2021/12/15 09:43:04;;;;;;;28.63;17.00;;;;;;;;;;5014579;28;20843;-50
2021/12/15 09:46:09;;;;;;;32.10;17.67;;;;;;;;;;5012898;28;20875;-52
2021/12/15 09:56:50;;;;;;;29.83;16.90;;;;;;;;;;5014030;28;20459;-51
2021/12/15 10:10:40;;;;;;;30.53;16.53;;;;;;;;;;5014404;28;20417;-52
2021/12/15 10:18:16;;;;;;;30.00;17.07;;;;;;;;;;5015002;28;20409;-51
2021/12/15 10:20:42;;;;;;;31.07;18.60;;;;;;;;;;5014805;28;20427;-51
2021/12/15 10:23:12;;;;;;;35.20;17.00;;;;;;;;;;5013511;28;20473;-50
2021/12/15 10:25:43;;;;;;;32.80;17.90;;;;;;;;;;5019815;28;20791;-52
2021/12/15 10:28:10;;;;;;;30.63;16.30;;;;;;;;;;5013513;28;20430;-50
2021/12/15 10:30:43;;;;;;;34.90;18.40;;;;;;;;;;4997499;28;20427;-50
2021/12/15 10:33:11;;;;;;;29.33;18.20;;;;;;;;;;5012068;28;20427;-50
2021/12/15 10:35:42;;;;;;;31.70;17.50;;;;;;;;;;5013314;28;20446;-51
2021/12/15 10:38:27;;;;;;;33.63;18.20;;;;;;;;;;5021386;28;20442;-51
2021/12/15 10:41:01;;;;;;;25.23;15.80;;;;;;;;;;5017841;28;20658;-51
2021/12/15 10:43:31;;;;;;;32.07;16.00;;;;;;;;;;5019794;28;20473;-52
2021/12/15 10:45:59;;;;;;;28.83;17.13;;;;;;;;;;5016026;28;20435;-52
2021/12/15 10:48:37;;;;;;;26.53;18.23;;;;;;;;;;5024782;28;20484;-50
2021/12/15 10:51:21;;;;;;;29.57;16.73;;;;;;;;;;5019084;28;20426;-50
2021/12/15 10:53:48;;;;;;;28.37;16.13;;;;;;;;;;5015540;28;20427;-53
2021/12/15 10:56:15;;;;;;;30.10;18.33;;;;;;;;;;5023245;28;20525;-52
2021/12/15 10:58:43;;;;;;;30.33;17.50;;;;;;;;;;5015437;28;20415;-52
2021/12/15 11:01:27;;;;;;;27.70;16.40;;;;;;;;;;5012608;28;20422;-52
2021/12/15 11:03:53;;;;;;;30.07;17.00;;;;;;;;;;5013258;28;20519;-51
2021/12/15 11:06:21;;;;;;;29.47;16.93;;;;;;;;;;5012157;28;20578;-52
2021/12/15 11:08:47;;;;;;;29.20;16.93;;;;;;;;;;5011889;28;20403;-52
2021/12/15 11:11:28;;;;;;;30.43;18.10;;;;;;;;;;5010746;28;20408;-53
2021/12/15 11:13:55;;;;;;;33.30;17.60;;;;;;;;;;5011031;28;20407;-51
2021/12/15 11:16:31;;;;;;;30.00;17.60;;;;;;;;;;5010843;28;20435;-53
2021/12/15 11:18:58;;;;;;;32.03;17.80;;;;;;;;;;5011965;28;20415;-52
2021/12/15 11:21:30;;;;;;;30.60;16.93;;;;;;;;;;5012472;28;20887;-52
2021/12/15 11:23:56;;;;;;;35.13;18.40;;;;;;;;;;5011880;28;20465;-53
2021/12/15 11:26:22;;;;;;;32.47;18.33;;;;;;;;;;5011311;28;20501;-53
2021/12/15 11:28:50;;;;;;;31.33;17.70;;;;;;;;;;5011732;28;20565;-53
2021/12/15 11:31:20;;;;;;;30.83;18.60;;;;;;;;;;5012342;28;20794;-52
2021/12/15 11:33:48;;;;;;;37.17;20.73;;;;;;;;;;5012130;28;20489;-52
2021/12/15 11:36:21;;;;;;;32.47;18.07;;;;;;;;;;5011415;28;20435;-52
2021/12/15 11:38:57;;;;;;;41.43;19.20;;;;;;;;;;5012050;28;20413;-51
2021/12/15 11:41:32;;;;;;;38.80;20.40;;;;;;;;;;5012002;28;20403;-52
2021/12/15 11:44:00;;;;;;;30.40;19.17;;;;;;;;;;5012033;28;20501;-51
2021/12/15 11:46:31;;;;;;;27.93;17.93;;;;;;;;;;5011219;28;20435;-52
2021/12/15 11:49:05;;;;;;;32.83;19.07;;;;;;;;;;5011882;28;20498;-51
2021/12/15 11:51:49;;;;;;;31.73;18.17;;;;;;;;;;5011912;28;20498;-52
2021/12/15 11:54:21;;;;;;;32.10;17.50;;;;;;;;;;5011921;28;20411;-52
2021/12/15 11:56:48;;;;;;;33.93;19.37;;;;;;;;;;5014284;28;20433;-52
2021/12/15 11:59:14;;;;;;;42.07;20.73;;;;;;;;;;5015609;28;20454;-53
2021/12/15 12:01:45;;;;;;;31.77;19.27;;;;;;;;;;5015933;28;20469;-51
2021/12/15 12:04:11;;;;;;;33.17;18.07;;;;;;;;;;5015855;28;20466;-52
2021/12/15 12:06:37;;;;;;;33.47;19.53;;;;;;;;;;5014766;28;20431;-50
2021/12/15 12:09:03;;;;;;;35.60;18.47;;;;;;;;;;5015192;28;20464;-51
2021/12/15 12:11:33;;;;;;;29.33;17.53;;;;;;;;;;5015072;28;20435;-52
2021/12/15 12:14:00;;;;;;;33.20;19.10;;;;;;;;;;5015371;28;20406;-52
2021/12/15 12:16:26;;;;;;;31.50;18.40;;;;;;;;;;5014644;28;20521;-51
2021/12/15 12:18:52;;;;;;;38.17;21.13;;;;;;;;;;5014931;28;20403;-51
2021/12/15 12:21:18;;;;;;;34.80;20.83;;;;;;;;;;5015307;28;20971;-51
2021/12/15 12:23:46;;;;;;;38.10;19.03;;;;;;;;;;5015083;28;20463;-52
2021/12/15 12:26:13;;;;;;;32.10;18.77;;;;;;;;;;5014640;28;20450;-50
2021/12/15 12:28:40;;;;;;;32.83;19.60;;;;;;;;;;5014650;28;20429;-52
2021/12/15 12:31:08;;;;;;;34.40;19.33;;;;;;;;;;5025037;28;20424;-53
2021/12/15 12:33:34;;;;;;;31.87;18.23;;;;;;;;;;5024824;28;20413;-52
2021/12/15 12:36:08;;;;;;;32.17;19.03;;;;;;;;;;5022556;28;20949;-52
2021/12/15 12:38:35;;;;;;;31.83;20.10;;;;;;;;;;5025464;28;20410;-52
2021/12/15 12:41:11;;;;;;;26.77;16.80;;;;;;;;;;5024495;28;20422;-51
2021/12/15 12:43:38;;;;;;;29.50;18.00;;;;;;;;;;5021227;28;20463;-53
2021/12/15 12:46:12;;;;;;;29.50;17.70;;;;;;;;;;5021199;28;20434;-51
2021/12/15 12:49:18;;;;;;;25.17;17.00;;;;;;;;;;5025099;28;20768;-52
2021/12/15 13:00:33;;;;;;;25.87;16.80;;;;;;;;;;5015739;28;20497;-53
2021/12/15 13:03:01;;;;;;;28.30;16.30;;;;;;;;;;5009952;28;20691;-53
2021/12/15 13:05:29;;;;;;;27.53;16.20;;;;;;;;;;5013891;28;20490;-50
2021/12/15 13:07:57;;;;;;;34.13;18.47;;;;;;;;;;5011957;28;20406;-52
2021/12/15 13:10:43;;;;;;;26.83;17.03;;;;;;;;;;5014091;28;20450;-53
2021/12/15 13:13:17;;;;;;;29.33;16.80;;;;;;;;;;5014388;28;20403;-53
2021/12/15 13:15:50;;;;;;;28.63;16.80;;;;;;;;;;5013727;28;20485;-53
2021/12/15 13:18:17;;;;;;;30.23;18.17;;;;;;;;;;5015068;28;20765;-52
2021/12/15 13:20:52;;;;;;;24.50;16.97;;;;;;;;;;5015079;28;20443;-52
2021/12/15 13:23:41;;;;;;;28.10;17.53;;;;;;;;;;5015501;28;20477;-54
2021/12/15 13:28:53;;;;;;;29.77;17.50;;;;;;;;;;5015504;28;20434;-53
2021/12/15 13:31:22;;;;;;;27.67;17.03;;;;;;;;;;5015012;28;20442;-53
2021/12/15 13:33:57;;;;;;;28.60;17.63;;;;;;;;;;5014877;28;20438;-54
2021/12/15 13:36:29;;;;;;;29.87;17.40;;;;;;;;;;5014465;28;20441;-53
2021/12/15 13:39:07;;;;;;;32.10;18.63;;;;;;;;;;5015325;28;20414;-52
2021/12/15 13:41:41;;;;;;;26.80;17.20;;;;;;;;;;5015503;28;20399;-53
2021/12/15 13:44:07;;;;;;;27.57;17.00;;;;;;;;;;5015571;28;20451;-53
2021/12/15 13:46:32;;;;;;;30.33;16.93;;;;;;;;;;5014545;28;20477;-53
2021/12/15 13:49:04;;;;;;;27.20;18.40;;;;;;;;;;5015157;28;20804;-53
2021/12/15 13:51:49;;;;;;;32.80;17.47;;;;;;;;;;5014936;28;20759;-53
2021/12/15 13:54:21;;;;;;;29.70;15.73;;;;;;;;;;5014073;28;20776;-53
2021/12/15 13:56:51;;;;;;;29.53;17.53;;;;;;;;;;5013203;28;20510;-53
2021/12/15 13:59:31;;;;;;;33.53;18.50;;;;;;;;;;5014134;28;20408;-52
2021/12/15 14:02:18;;;;;;;31.37;18.20;;;;;;;;;;5013929;28;20403;-52
2021/12/15 14:04:46;;;;;;;29.20;19.17;;;;;;;;;;5013043;28;20421;-54
2021/12/15 14:07:30;;;;;;;31.80;17.80;;;;;;;;;;5013981;28;20450;-53
2021/12/15 14:10:01;;;;;;;31.20;18.20;;;;;;;;;;5015243;28;20694;-54
2021/12/15 14:12:45;;;;;;;28.87;17.70;;;;;;;;;;5021651;28;20412;-53
2021/12/15 14:15:30;;;;;;;29.77;17.80;;;;;;;;;;5012762;28;20457;-54
2021/12/15 14:17:57;;;;;;;34.90;18.70;;;;;;;;;;5012906;28;20402;-54
2021/12/15 14:20:23;;;;;;;31.10;17.70;;;;;;;;;;5013567;28;20400;-53
2021/12/15 14:22:55;;;;;;;35.30;17.90;;;;;;;;;;5013548;28;20454;-53
2021/12/15 14:25:21;;;;;;;31.53;16.83;;;;;;;;;;5027411;28;20488;-53
2021/12/15 14:27:47;;;;;;;28.30;18.90;;;;;;;;;;5031145;28;20422;-52
2021/12/15 14:30:13;;;;;;;27.93;17.63;;;;;;;;;;5031550;28;20406;-52
2021/12/15 14:32:39;;;;;;;30.30;16.40;;;;;;;;;;5032182;28;20410;-52
2021/12/15 14:35:05;;;;;;;29.57;17.60;;;;;;;;;;5032254;28;20438;-54
2021/12/15 14:37:31;;;;;;;25.07;16.37;;;;;;;;;;5033280;28;20407;-52
2021/12/15 14:39:57;;;;;;;27.50;17.07;;;;;;;;;;5032603;28;20652;-53
2021/12/15 14:42:25;;;;;;;31.33;16.53;;;;;;;;;;5032943;28;20409;-53
2021/12/15 14:44:53;;;;;;;27.70;16.80;;;;;;;;;;5032150;28;20418;-52
2021/12/15 14:47:20;;;;;;;31.57;16.97;;;;;;;;;;5032884;28;20397;-53
2021/12/15 14:49:54;;;;;;;24.37;16.07;;;;;;;;;;5032563;28;20511;-52
2021/12/15 14:52:31;;;;;;;31.07;17.87;;;;;;;;;;5033221;28;20401;-53
2021/12/15 14:54:59;;;;;;;27.63;16.70;;;;;;;;;;5032001;28;20874;-51
2021/12/15 14:57:27;;;;;;;28.87;17.70;;;;;;;;;;5032797;28;20878;-53
2021/12/15 14:59:56;;;;;;;27.30;15.43;;;;;;;;;;5033075;28;20753;-52
2021/12/15 15:02:23;;;;;;;29.03;16.07;;;;;;;;;;5032878;28;20448;-54
2021/12/15 15:04:57;;;;;;;25.50;15.40;;;;;;;;;;5032258;28;20413;-52
2021/12/15 15:07:25;;;;;;;30.67;16.90;;;;;;;;;;5032572;28;20481;-52
2021/12/15 15:09:56;;;;;;;26.23;16.60;;;;;;;;;;5033007;28;20399;-52
2021/12/15 15:12:24;;;;;;;29.33;16.27;;;;;;;;;;5033202;28;20828;-51
2021/12/15 15:14:52;;;;;;;33.70;18.23;;;;;;;;;;5032039;28;20747;-52
2021/12/15 15:17:29;;;;;;;25.70;16.97;;;;;;;;;;5031945;28;20448;-51
2021/12/15 15:19:58;;;;;;;27.27;16.80;;;;;;;;;;5031993;28;20402;-53
2021/12/15 15:22:25;;;;;;;31.70;17.27;;;;;;;;;;5031892;28;20406;-53
2021/12/15 15:24:53;;;;;;;27.83;16.63;;;;;;;;;;5031208;28;20521;-52
2021/12/15 15:27:19;;;;;;;32.10;17.20;;;;;;;;;;5024781;28;20407;-51
2021/12/15 15:29:51;;;;;;;24.57;15.00;;;;;;;;;;5011162;28;20407;-53
2021/12/15 15:32:21;;;;;;;29.07;16.03;;;;;;;;;;5012174;28;20425;-54
2021/12/15 15:34:48;;;;;;;27.10;16.27;;;;;;;;;;5011768;28;20396;-53
2021/12/15 15:37:19;;;;;;;34.37;17.27;;;;;;;;;;5012950;28;20403;-52
2021/12/15 15:39:45;;;;;;;25.67;15.90;;;;;;;;;;5013446;28;20403;-53
2021/12/15 15:42:22;;;;;;;24.30;15.40;;;;;;;;;;5012647;28;20442;-51
2021/12/15 15:44:48;;;;;;;26.20;16.27;;;;;;;;;;5011595;28;20789;-53
2021/12/15 15:47:15;;;;;;;26.00;15.33;;;;;;;;;;5012101;28;20391;-52
2021/12/15 15:49:49;;;;;;;24.10;15.80;;;;;;;;;;5012712;28;20402;-53